Terminal Aerodrome Forecast
Issued by NWS

Home | Current Version | Previous Version | Text Only | Print | Product List | Glossary On
Versions: 1 2 3 4 5 6 7 8 9 10 11 12 13 14
000
FTUS43 KOAX 050533
TAFSNY
TAF
KSNY 050533Z 0506/0606 VRB05KT P6SM SCT120
     FM050800 27005KT 6SM BR VCFG SCT010
      TEMPO 0509/0513 3SM BR
     FM051500 22007KT P6SM SKC
     FM051800 19008KT P6SM SCT100
     FM060000 15012KT P6SM VCTS BKN060CB BKN100=

USA.gov is the U.S. government's official web portal to all federal, state and local government web resources and services.